sensor_id;sensor_type;location;lat;lon;timestamp;P1;durP1;ratioP1;P2;durP2;ratioP2
19903;SDS011;10114;50.970;4.962;2023-01-19T00:01:48;28.58;;;12.80;;
19903;SDS011;10114;50.970;4.962;2023-01-19T00:04:14;23.55;;;11.32;;
19903;SDS011;10114;50.970;4.962;2023-01-19T00:06:40;25.33;;;12.95;;
19903;SDS011;10114;50.970;4.962;2023-01-19T00:09:06;31.17;;;13.88;;
19903;SDS011;10114;50.970;4.962;2023-01-19T00:11:33;28.13;;;13.65;;
19903;SDS011;10114;50.970;4.962;2023-01-19T00:13:59;27.05;;;13.93;;
19903;SDS011;10114;50.970;4.962;2023-01-19T00:16:25;22.70;;;11.23;;
19903;SDS011;10114;50.970;4.962;2023-01-19T00:18:51;27.92;;;13.40;;
19903;SDS011;10114;50.970;4.962;2023-01-19T00:21:17;33.00;;;14.85;;
19903;SDS011;10114;50.970;4.962;2023-01-19T00:23:45;28.38;;;14.75;;
19903;SDS011;10114;50.970;4.962;2023-01-19T00:26:12;33.33;;;14.15;;
19903;SDS011;10114;50.970;4.962;2023-01-19T00:28:40;29.63;;;13.82;;
19903;SDS011;10114;50.970;4.962;2023-01-19T00:31:07;34.70;;;14.65;;
19903;SDS011;10114;50.970;4.962;2023-01-19T00:33:33;33.90;;;14.30;;
19903;SDS011;10114;50.970;4.962;2023-01-19T00:35:59;29.40;;;13.98;;
19903;SDS011;10114;50.970;4.962;2023-01-19T00:38:25;28.63;;;13.80;;
19903;SDS011;10114;50.970;4.962;2023-01-19T00:40:51;28.55;;;14.32;;
19903;SDS011;10114;50.970;4.962;2023-01-19T00:43:17;34.42;;;13.93;;
19903;SDS011;10114;50.970;4.962;2023-01-19T00:45:44;30.77;;;14.20;;
19903;SDS011;10114;50.970;4.962;2023-01-19T00:48:10;28.75;;;13.70;;
19903;SDS011;10114;50.970;4.962;2023-01-19T00:50:36;29.45;;;14.00;;
19903;SDS011;10114;50.970;4.962;2023-01-19T00:53:02;31.73;;;13.57;;
19903;SDS011;10114;50.970;4.962;2023-01-19T00:55:29;27.17;;;13.10;;
19903;SDS011;10114;50.970;4.962;2023-01-19T00:57:56;24.30;;;12.25;;
19903;SDS011;10114;50.970;4.962;2023-01-19T01:00:23;25.65;;;12.38;;
19903;SDS011;10114;50.970;4.962;2023-01-19T01:02:49;25.27;;;12.02;;
19903;SDS011;10114;50.970;4.962;2023-01-19T01:05:16;24.90;;;11.90;;
19903;SDS011;10114;50.970;4.962;2023-01-19T01:07:43;27.38;;;12.30;;
19903;SDS011;10114;50.970;4.962;2023-01-19T01:12:36;27.70;;;13.73;;
19903;SDS011;10114;50.970;4.962;2023-01-19T01:15:02;30.27;;;12.73;;
19903;SDS011;10114;50.970;4.962;2023-01-19T01:17:28;33.72;;;14.73;;
19903;SDS011;10114;50.970;4.962;2023-01-19T01:19:54;33.75;;;13.15;;
19903;SDS011;10114;50.970;4.962;2023-01-19T01:22:20;28.88;;;12.98;;
19903;SDS011;10114;50.970;4.962;2023-01-19T01:24:46;29.35;;;13.27;;
19903;SDS011;10114;50.970;4.962;2023-01-19T01:27:12;29.42;;;12.35;;
19903;SDS011;10114;50.970;4.962;2023-01-19T01:29:39;30.23;;;13.32;;
19903;SDS011;10114;50.970;4.962;2023-01-19T01:32:06;27.15;;;12.77;;
19903;SDS011;10114;50.970;4.962;2023-01-19T01:34:33;31.13;;;13.50;;
19903;SDS011;10114;50.970;4.962;2023-01-19T01:36:59;26.20;;;12.98;;
19903;SDS011;10114;50.970;4.962;2023-01-19T01:39:25;33.78;;;13.57;;
19903;SDS011;10114;50.970;4.962;2023-01-19T01:41:51;31.77;;;13.20;;
19903;SDS011;10114;50.970;4.962;2023-01-19T01:47:02;36.58;;;13.07;;
19903;SDS011;10114;50.970;4.962;2023-01-19T01:49:29;28.50;;;13.23;;
19903;SDS011;10114;50.970;4.962;2023-01-19T01:51:55;32.38;;;13.50;;
19903;SDS011;10114;50.970;4.962;2023-01-19T01:54:39;29.20;;;12.45;;
19903;SDS011;10114;50.970;4.962;2023-01-19T01:57:06;27.73;;;12.80;;
19903;SDS011;10114;50.970;4.962;2023-01-19T01:59:38;26.33;;;9.20;;
19903;SDS011;10114;50.970;4.962;2023-01-19T02:02:08;26.35;;;11.63;;
19903;SDS011;10114;50.970;4.962;2023-01-19T02:04:55;34.08;;;14.23;;
19903;SDS011;10114;50.970;4.962;2023-01-19T02:07:28;29.30;;;12.63;;
19903;SDS011;10114;50.970;4.962;2023-01-19T02:10:15;31.30;;;12.63;;
19903;SDS011;10114;50.970;4.962;2023-01-19T02:12:59;28.20;;;9.98;;
19903;SDS011;10114;50.970;4.962;2023-01-19T02:15:44;28.33;;;13.70;;
19903;SDS011;10114;50.970;4.962;2023-01-19T02:18:10;27.10;;;12.93;;
19903;SDS011;10114;50.970;4.962;2023-01-19T02:20:38;27.48;;;12.02;;
19903;SDS011;10114;50.970;4.962;2023-01-19T02:23:06;33.50;;;14.20;;
19903;SDS011;10114;50.970;4.962;2023-01-19T02:25:36;30.85;;;11.95;;
19903;SDS011;10114;50.970;4.962;2023-01-19T02:28:04;34.72;;;13.90;;
19903;SDS011;10114;50.970;4.962;2023-01-19T02:30:31;37.65;;;13.02;;
19903;SDS011;10114;50.970;4.962;2023-01-19T02:32:57;28.52;;;11.88;;
19903;SDS011;10114;50.970;4.962;2023-01-19T02:35:23;33.83;;;13.18;;
19903;SDS011;10114;50.970;4.962;2023-01-19T02:37:50;27.33;;;12.40;;
19903;SDS011;10114;50.970;4.962;2023-01-19T02:40:17;24.83;;;10.00;;
19903;SDS011;10114;50.970;4.962;2023-01-19T02:42:50;33.10;;;12.98;;
19903;SDS011;10114;50.970;4.962;2023-01-19T02:45:20;34.05;;;12.98;;
19903;SDS011;10114;50.970;4.962;2023-01-19T02:47:48;28.77;;;12.10;;
19903;SDS011;10114;50.970;4.962;2023-01-19T02:50:31;26.25;;;11.48;;
19903;SDS011;10114;50.970;4.962;2023-01-19T02:53:01;30.30;;;12.07;;
19903;SDS011;10114;50.970;4.962;2023-01-19T02:55:31;27.27;;;12.02;;
19903;SDS011;10114;50.970;4.962;2023-01-19T02:58:10;30.63;;;12.35;;
19903;SDS011;10114;50.970;4.962;2023-01-19T03:03:19;28.92;;;12.55;;
19903;SDS011;10114;50.970;4.962;2023-01-19T03:06:07;29.95;;;11.90;;
19903;SDS011;10114;50.970;4.962;2023-01-19T03:08:41;29.20;;;12.55;;
19903;SDS011;10114;50.970;4.962;2023-01-19T03:11:09;30.80;;;12.25;;
19903;SDS011;10114;50.970;4.962;2023-01-19T03:21:46;29.75;;;12.45;;
19903;SDS011;10114;50.970;4.962;2023-01-19T03:24:12;30.75;;;10.63;;
19903;SDS011;10114;50.970;4.962;2023-01-19T03:26:41;35.85;;;12.70;;
19903;SDS011;10114;50.970;4.962;2023-01-19T03:29:09;26.15;;;10.98;;
19903;SDS011;10114;50.970;4.962;2023-01-19T03:31:35;33.38;;;11.73;;
19903;SDS011;10114;50.970;4.962;2023-01-19T03:34:03;19.38;;;8.32;;
19903;SDS011;10114;50.970;4.962;2023-01-19T03:39:00;28.30;;;11.45;;
19903;SDS011;10114;50.970;4.962;2023-01-19T03:41:27;26.80;;;11.73;;
19903;SDS011;10114;50.970;4.962;2023-01-19T03:43:54;30.30;;;12.38;;
19903;SDS011;10114;50.970;4.962;2023-01-19T03:46:21;27.10;;;12.38;;
19903;SDS011;10114;50.970;4.962;2023-01-19T03:48:48;29.25;;;11.93;;
19903;SDS011;10114;50.970;4.962;2023-01-19T03:51:14;27.98;;;11.68;;
19903;SDS011;10114;50.970;4.962;2023-01-19T03:53:41;29.10;;;12.32;;
19903;SDS011;10114;50.970;4.962;2023-01-19T03:56:21;28.25;;;10.43;;
19903;SDS011;10114;50.970;4.962;2023-01-19T03:58:47;26.73;;;12.02;;
19903;SDS011;10114;50.970;4.962;2023-01-19T04:01:14;27.63;;;11.55;;
19903;SDS011;10114;50.970;4.962;2023-01-19T04:03:40;28.58;;;12.77;;
19903;SDS011;10114;50.970;4.962;2023-01-19T04:06:07;24.98;;;11.45;;
19903;SDS011;10114;50.970;4.962;2023-01-19T04:08:33;25.77;;;12.43;;
19903;SDS011;10114;50.970;4.962;2023-01-19T04:10:59;28.02;;;13.15;;
19903;SDS011;10114;50.970;4.962;2023-01-19T04:13:25;31.77;;;12.38;;
19903;SDS011;10114;50.970;4.962;2023-01-19T04:15:54;27.92;;;12.02;;
19903;SDS011;10114;50.970;4.962;2023-01-19T04:18:20;28.50;;;12.68;;
19903;SDS011;10114;50.970;4.962;2023-01-19T04:20:46;34.28;;;12.32;;
19903;SDS011;10114;50.970;4.962;2023-01-19T04:23:12;30.65;;;12.18;;
19903;SDS011;10114;50.970;4.962;2023-01-19T04:25:38;27.67;;;12.15;;
19903;SDS011;10114;50.970;4.962;2023-01-19T04:28:04;28.73;;;10.20;;
19903;SDS011;10114;50.970;4.962;2023-01-19T04:30:30;26.08;;;11.75;;
19903;SDS011;10114;50.970;4.962;2023-01-19T04:32:57;23.45;;;9.82;;
19903;SDS011;10114;50.970;4.962;2023-01-19T04:35:23;31.85;;;12.15;;
19903;SDS011;10114;50.970;4.962;2023-01-19T04:37:49;25.85;;;9.93;;
19903;SDS011;10114;50.970;4.962;2023-01-19T04:40:16;28.23;;;11.05;;
19903;SDS011;10114;50.970;4.962;2023-01-19T04:42:42;28.10;;;11.95;;
19903;SDS011;10114;50.970;4.962;2023-01-19T04:45:09;30.67;;;11.30;;
19903;SDS011;10114;50.970;4.962;2023-01-19T04:47:35;27.25;;;11.68;;
19903;SDS011;10114;50.970;4.962;2023-01-19T04:50:02;23.90;;;11.07;;
19903;SDS011;10114;50.970;4.962;2023-01-19T04:52:32;30.92;;;11.25;;
19903;SDS011;10114;50.970;4.962;2023-01-19T04:55:02;30.67;;;12.40;;
19903;SDS011;10114;50.970;4.962;2023-01-19T04:57:29;31.58;;;12.85;;
19903;SDS011;10114;50.970;4.962;2023-01-19T04:59:55;32.30;;;13.30;;
19903;SDS011;10114;50.970;4.962;2023-01-19T05:02:22;28.75;;;12.15;;
19903;SDS011;10114;50.970;4.962;2023-01-19T05:04:48;30.25;;;12.57;;
19903;SDS011;10114;50.970;4.962;2023-01-19T05:07:14;30.77;;;12.27;;
19903;SDS011;10114;50.970;4.962;2023-01-19T05:09:41;30.35;;;13.35;;
19903;SDS011;10114;50.970;4.962;2023-01-19T05:12:07;32.97;;;12.57;;
19903;SDS011;10114;50.970;4.962;2023-01-19T05:14:33;33.92;;;13.32;;
19903;SDS011;10114;50.970;4.962;2023-01-19T05:16:59;31.77;;;13.07;;
19903;SDS011;10114;50.970;4.962;2023-01-19T05:19:27;22.27;;;10.02;;
19903;SDS011;10114;50.970;4.962;2023-01-19T05:21:53;28.50;;;11.13;;
19903;SDS011;10114;50.970;4.962;2023-01-19T05:24:19;26.70;;;12.15;;
19903;SDS011;10114;50.970;4.962;2023-01-19T05:26:45;30.45;;;10.48;;
19903;SDS011;10114;50.970;4.962;2023-01-19T05:29:11;31.98;;;12.75;;
19903;SDS011;10114;50.970;4.962;2023-01-19T05:31:37;35.40;;;12.60;;
19903;SDS011;10114;50.970;4.962;2023-01-19T05:34:04;29.38;;;12.25;;
19903;SDS011;10114;50.970;4.962;2023-01-19T05:36:30;39.78;;;14.85;;
19903;SDS011;10114;50.970;4.962;2023-01-19T05:38:56;37.53;;;14.00;;
19903;SDS011;10114;50.970;4.962;2023-01-19T05:41:22;29.67;;;12.20;;
19903;SDS011;10114;50.970;4.962;2023-01-19T05:43:48;32.25;;;12.70;;
19903;SDS011;10114;50.970;4.962;2023-01-19T05:46:14;33.42;;;12.82;;
19903;SDS011;10114;50.970;4.962;2023-01-19T05:48:40;37.67;;;14.20;;
19903;SDS011;10114;50.970;4.962;2023-01-19T05:51:06;30.98;;;13.52;;
19903;SDS011;10114;50.970;4.962;2023-01-19T05:53:33;31.05;;;12.30;;
19903;SDS011;10114;50.970;4.962;2023-01-19T05:56:02;31.45;;;14.35;;
19903;SDS011;10114;50.970;4.962;2023-01-19T05:58:29;39.15;;;14.20;;
19903;SDS011;10114;50.970;4.962;2023-01-19T06:00:56;40.78;;;14.65;;
19903;SDS011;10114;50.970;4.962;2023-01-19T06:03:22;34.10;;;14.27;;
19903;SDS011;10114;50.970;4.962;2023-01-19T06:05:48;35.13;;;14.32;;
19903;SDS011;10114;50.970;4.962;2023-01-19T06:08:14;36.35;;;15.75;;
19903;SDS011;10114;50.970;4.962;2023-01-19T06:10:40;37.78;;;15.48;;
19903;SDS011;10114;50.970;4.962;2023-01-19T06:13:06;39.03;;;16.42;;
19903;SDS011;10114;50.970;4.962;2023-01-19T06:15:33;42.05;;;15.65;;
19903;SDS011;10114;50.970;4.962;2023-01-19T06:17:59;32.90;;;13.80;;
19903;SDS011;10114;50.970;4.962;2023-01-19T06:20:25;44.13;;;16.15;;
19903;SDS011;10114;50.970;4.962;2023-01-19T06:22:51;37.42;;;15.60;;
19903;SDS011;10114;50.970;4.962;2023-01-19T06:25:17;42.83;;;17.00;;
19903;SDS011;10114;50.970;4.962;2023-01-19T06:27:44;39.90;;;16.60;;
19903;SDS011;10114;50.970;4.962;2023-01-19T06:30:10;39.95;;;16.52;;
19903;SDS011;10114;50.970;4.962;2023-01-19T06:32:36;41.83;;;16.85;;
19903;SDS011;10114;50.970;4.962;2023-01-19T06:35:02;41.92;;;16.70;;
19903;SDS011;10114;50.970;4.962;2023-01-19T06:37:28;39.97;;;15.32;;
19903;SDS011;10114;50.970;4.962;2023-01-19T06:39:55;41.20;;;16.02;;
19903;SDS011;10114;50.970;4.962;2023-01-19T06:42:21;27.25;;;11.90;;
19903;SDS011;10114;50.970;4.962;2023-01-19T06:44:47;41.55;;;17.73;;
19903;SDS011;10114;50.970;4.962;2023-01-19T06:47:13;48.20;;;18.17;;
19903;SDS011;10114;50.970;4.962;2023-01-19T06:49:40;45.58;;;16.95;;
19903;SDS011;10114;50.970;4.962;2023-01-19T06:52:07;41.60;;;16.50;;
19903;SDS011;10114;50.970;4.962;2023-01-19T06:54:34;47.33;;;17.83;;
19903;SDS011;10114;50.970;4.962;2023-01-19T06:57:00;46.20;;;16.73;;
19903;SDS011;10114;50.970;4.962;2023-01-19T06:59:26;43.40;;;17.33;;
19903;SDS011;10114;50.970;4.962;2023-01-19T07:01:52;45.17;;;17.35;;
19903;SDS011;10114;50.970;4.962;2023-01-19T07:04:19;46.15;;;16.80;;
19903;SDS011;10114;50.970;4.962;2023-01-19T07:06:45;42.75;;;18.63;;
19903;SDS011;10114;50.970;4.962;2023-01-19T07:09:11;40.83;;;15.23;;
19903;SDS011;10114;50.970;4.962;2023-01-19T07:11:38;55.25;;;19.77;;
19903;SDS011;10114;50.970;4.962;2023-01-19T07:14:04;48.42;;;18.40;;
19903;SDS011;10114;50.970;4.962;2023-01-19T07:16:30;49.28;;;17.73;;
19903;SDS011;10114;50.970;4.962;2023-01-19T07:18:56;47.95;;;17.38;;
19903;SDS011;10114;50.970;4.962;2023-01-19T07:21:22;51.55;;;18.45;;
19903;SDS011;10114;50.970;4.962;2023-01-19T07:23:48;52.17;;;18.05;;
19903;SDS011;10114;50.970;4.962;2023-01-19T07:26:14;36.65;;;13.80;;
19903;SDS011;10114;50.970;4.962;2023-01-19T07:28:43;49.10;;;19.02;;
19903;SDS011;10114;50.970;4.962;2023-01-19T07:31:09;48.75;;;17.92;;
19903;SDS011;10114;50.970;4.962;2023-01-19T07:33:35;40.28;;;17.17;;
19903;SDS011;10114;50.970;4.962;2023-01-19T07:36:02;53.22;;;25.55;;
19903;SDS011;10114;50.970;4.962;2023-01-19T07:38:28;60.45;;;23.83;;
19903;SDS011;10114;50.970;4.962;2023-01-19T07:41:00;51.40;;;19.50;;
19903;SDS011;10114;50.970;4.962;2023-01-19T07:43:26;46.38;;;19.83;;
19903;SDS011;10114;50.970;4.962;2023-01-19T07:45:56;50.20;;;18.77;;
19903;SDS011;10114;50.970;4.962;2023-01-19T07:48:22;51.45;;;19.00;;
19903;SDS011;10114;50.970;4.962;2023-01-19T07:50:49;53.28;;;20.02;;
19903;SDS011;10114;50.970;4.962;2023-01-19T07:53:15;46.47;;;18.40;;
19903;SDS011;10114;50.970;4.962;2023-01-19T07:55:41;33.05;;;13.07;;
19903;SDS011;10114;50.970;4.962;2023-01-19T07:58:07;54.58;;;18.35;;
19903;SDS011;10114;50.970;4.962;2023-01-19T08:00:34;44.75;;;17.33;;
19903;SDS011;10114;50.970;4.962;2023-01-19T08:03:00;47.15;;;19.15;;
19903;SDS011;10114;50.970;4.962;2023-01-19T08:05:27;53.67;;;18.38;;
19903;SDS011;10114;50.970;4.962;2023-01-19T08:07:54;52.60;;;19.92;;
19903;SDS011;10114;50.970;4.962;2023-01-19T08:10:24;48.55;;;19.20;;
19903;SDS011;10114;50.970;4.962;2023-01-19T08:12:54;50.38;;;18.30;;
19903;SDS011;10114;50.970;4.962;2023-01-19T08:15:21;54.08;;;19.35;;
19903;SDS011;10114;50.970;4.962;2023-01-19T08:17:58;45.03;;;17.75;;
19903;SDS011;10114;50.970;4.962;2023-01-19T08:20:24;43.60;;;15.65;;
19903;SDS011;10114;50.970;4.962;2023-01-19T08:22:51;46.60;;;18.63;;
19903;SDS011;10114;50.970;4.962;2023-01-19T08:25:24;50.38;;;18.00;;
19903;SDS011;10114;50.970;4.962;2023-01-19T08:27:52;47.60;;;17.20;;
19903;SDS011;10114;50.970;4.962;2023-01-19T08:30:18;53.97;;;19.80;;
19903;SDS011;10114;50.970;4.962;2023-01-19T08:32:44;53.10;;;19.67;;
19903;SDS011;10114;50.970;4.962;2023-01-19T08:35:10;53.50;;;21.23;;
19903;SDS011;10114;50.970;4.962;2023-01-19T08:37:36;55.33;;;21.48;;
19903;SDS011;10114;50.970;4.962;2023-01-19T08:40:02;50.83;;;22.08;;
19903;SDS011;10114;50.970;4.962;2023-01-19T08:42:28;48.83;;;18.77;;
19903;SDS011;10114;50.970;4.962;2023-01-19T08:44:54;48.72;;;21.08;;
19903;SDS011;10114;50.970;4.962;2023-01-19T08:47:21;55.00;;;19.25;;
19903;SDS011;10114;50.970;4.962;2023-01-19T08:49:47;49.45;;;21.13;;
19903;SDS011;10114;50.970;4.962;2023-01-19T08:52:13;56.20;;;19.48;;
19903;SDS011;10114;50.970;4.962;2023-01-19T08:54:39;44.05;;;17.13;;
19903;SDS011;10114;50.970;4.962;2023-01-19T08:57:05;44.55;;;18.00;;
19903;SDS011;10114;50.970;4.962;2023-01-19T08:59:31;42.33;;;17.08;;
19903;SDS011;10114;50.970;4.962;2023-01-19T09:01:57;54.95;;;19.13;;
19903;SDS011;10114;50.970;4.962;2023-01-19T09:04:23;42.97;;;16.45;;
19903;SDS011;10114;50.970;4.962;2023-01-19T09:06:49;55.22;;;20.48;;
19903;SDS011;10114;50.970;4.962;2023-01-19T09:09:15;51.53;;;21.60;;
19903;SDS011;10114;50.970;4.962;2023-01-19T09:11:41;47.53;;;19.23;;
19903;SDS011;10114;50.970;4.962;2023-01-19T09:14:07;42.95;;;18.45;;
19903;SDS011;10114;50.970;4.962;2023-01-19T09:16:33;45.50;;;17.00;;
19903;SDS011;10114;50.970;4.962;2023-01-19T09:18:59;47.90;;;19.20;;
19903;SDS011;10114;50.970;4.962;2023-01-19T09:21:26;47.90;;;17.17;;
19903;SDS011;10114;50.970;4.962;2023-01-19T09:23:52;48.33;;;18.35;;
19903;SDS011;10114;50.970;4.962;2023-01-19T09:26:19;51.72;;;21.48;;
19903;SDS011;10114;50.970;4.962;2023-01-19T09:28:46;35.00;;;14.27;;
19903;SDS011;10114;50.970;4.962;2023-01-19T09:31:12;44.70;;;17.60;;
19903;SDS011;10114;50.970;4.962;2023-01-19T09:33:39;44.28;;;17.08;;
19903;SDS011;10114;50.970;4.962;2023-01-19T09:36:05;38.20;;;15.82;;
19903;SDS011;10114;50.970;4.962;2023-01-19T09:38:31;51.97;;;17.15;;
19903;SDS011;10114;50.970;4.962;2023-01-19T09:40:58;46.90;;;16.98;;
19903;SDS011;10114;50.970;4.962;2023-01-19T09:45:54;45.20;;;16.38;;
19903;SDS011;10114;50.970;4.962;2023-01-19T09:50:54;48.95;;;16.92;;
19903;SDS011;10114;50.970;4.962;2023-01-19T09:53:44;53.60;;;18.38;;
19903;SDS011;10114;50.970;4.962;2023-01-19T09:56:09;44.00;;;16.50;;
19903;SDS011;10114;50.970;4.962;2023-01-19T09:58:35;51.45;;;16.42;;
19903;SDS011;10114;50.970;4.962;2023-01-19T10:01:05;36.63;;;15.23;;
19903;SDS011;10114;50.970;4.962;2023-01-19T10:03:33;38.22;;;16.95;;
19903;SDS011;10114;50.970;4.962;2023-01-19T10:06:01;44.47;;;16.23;;
19903;SDS011;10114;50.970;4.962;2023-01-19T10:10:57;36.10;;;14.82;;
19903;SDS011;10114;50.970;4.962;2023-01-19T10:23:40;34.22;;;13.45;;
19903;SDS011;10114;50.970;4.962;2023-01-19T10:26:19;40.47;;;14.98;;
19903;SDS011;10114;50.970;4.962;2023-01-19T10:28:48;31.73;;;13.45;;
19903;SDS011;10114;50.970;4.962;2023-01-19T10:31:19;34.20;;;15.63;;
19903;SDS011;10114;50.970;4.962;2023-01-19T10:33:47;38.10;;;15.13;;
19903;SDS011;10114;50.970;4.962;2023-01-19T10:36:28;32.47;;;14.45;;
19903;SDS011;10114;50.970;4.962;2023-01-19T10:38:54;34.83;;;14.68;;
19903;SDS011;10114;50.970;4.962;2023-01-19T10:41:22;37.95;;;14.27;;
19903;SDS011;10114;50.970;4.962;2023-01-19T10:43:58;36.85;;;14.80;;
19903;SDS011;10114;50.970;4.962;2023-01-19T10:46:36;35.40;;;14.80;;
19903;SDS011;10114;50.970;4.962;2023-01-19T10:49:03;35.45;;;14.50;;
19903;SDS011;10114;50.970;4.962;2023-01-19T10:51:30;34.42;;;14.15;;
19903;SDS011;10114;50.970;4.962;2023-01-19T10:53:57;31.58;;;12.13;;
19903;SDS011;10114;50.970;4.962;2023-01-19T10:56:26;37.60;;;13.57;;
19903;SDS011;10114;50.970;4.962;2023-01-19T10:58:52;32.17;;;13.15;;
19903;SDS011;10114;50.970;4.962;2023-01-19T11:01:22;31.67;;;13.55;;
19903;SDS011;10114;50.970;4.962;2023-01-19T11:03:48;33.60;;;12.93;;
19903;SDS011;10114;50.970;4.962;2023-01-19T11:08:41;32.72;;;12.07;;
19903;SDS011;10114;50.970;4.962;2023-01-19T11:11:08;27.33;;;11.20;;
19903;SDS011;10114;50.970;4.962;2023-01-19T11:13:36;28.20;;;12.65;;
19903;SDS011;10114;50.970;4.962;2023-01-19T11:16:03;28.73;;;11.15;;
19903;SDS011;10114;50.970;4.962;2023-01-19T11:18:30;26.63;;;10.68;;
19903;SDS011;10114;50.970;4.962;2023-01-19T11:20:58;35.00;;;12.30;;
19903;SDS011;10114;50.970;4.962;2023-01-19T11:25:58;34.17;;;12.70;;
19903;SDS011;10114;50.970;4.962;2023-01-19T11:28:33;28.65;;;10.93;;
19903;SDS011;10114;50.970;4.962;2023-01-19T11:36:02;29.13;;;11.77;;
19903;SDS011;10114;50.970;4.962;2023-01-19T11:38:28;26.88;;;11.30;;
19903;SDS011;10114;50.970;4.962;2023-01-19T11:40:55;26.08;;;10.70;;
19903;SDS011;10114;50.970;4.962;2023-01-19T11:43:23;32.08;;;11.60;;
19903;SDS011;10114;50.970;4.962;2023-01-19T11:45:49;29.63;;;10.95;;
19903;SDS011;10114;50.970;4.962;2023-01-19T11:48:20;24.52;;;11.48;;
19903;SDS011;10114;50.970;4.962;2023-01-19T11:50:47;31.33;;;13.05;;
19903;SDS011;10114;50.970;4.962;2023-01-19T11:53:20;24.40;;;10.75;;
19903;SDS011;10114;50.970;4.962;2023-01-19T11:55:57;28.88;;;11.75;;
19903;SDS011;10114;50.970;4.962;2023-01-19T11:58:27;27.15;;;11.40;;
19903;SDS011;10114;50.970;4.962;2023-01-19T12:00:58;25.17;;;10.52;;
19903;SDS011;10114;50.970;4.962;2023-01-19T12:03:28;31.17;;;10.88;;
19903;SDS011;10114;50.970;4.962;2023-01-19T12:06:16;29.35;;;12.57;;
19903;SDS011;10114;50.970;4.962;2023-01-19T12:08:48;27.02;;;12.27;;
19903;SDS011;10114;50.970;4.962;2023-01-19T12:11:18;27.35;;;12.43;;
19903;SDS011;10114;50.970;4.962;2023-01-19T12:13:46;30.55;;;11.75;;
19903;SDS011;10114;50.970;4.962;2023-01-19T12:16:16;30.10;;;11.65;;
19903;SDS011;10114;50.970;4.962;2023-01-19T12:18:45;30.38;;;11.70;;
19903;SDS011;10114;50.970;4.962;2023-01-19T12:21:12;32.92;;;10.75;;
19903;SDS011;10114;50.970;4.962;2023-01-19T12:23:43;28.27;;;10.48;;
19903;SDS011;10114;50.970;4.962;2023-01-19T12:28:45;31.45;;;11.98;;
19903;SDS011;10114;50.970;4.962;2023-01-19T12:31:18;29.23;;;11.85;;
19903;SDS011;10114;50.970;4.962;2023-01-19T12:33:45;32.63;;;11.38;;
19903;SDS011;10114;50.970;4.962;2023-01-19T12:39:13;35.30;;;12.20;;
19903;SDS011;10114;50.970;4.962;2023-01-19T12:41:40;36.00;;;12.77;;
19903;SDS011;10114;50.970;4.962;2023-01-19T12:51:29;33.17;;;11.27;;
19903;SDS011;10114;50.970;4.962;2023-01-19T12:53:56;34.97;;;12.07;;
19903;SDS011;10114;50.970;4.962;2023-01-19T12:56:30;30.52;;;11.68;;
19903;SDS011;10114;50.970;4.962;2023-01-19T12:58:57;31.80;;;12.68;;
19903;SDS011;10114;50.970;4.962;2023-01-19T13:01:23;37.80;;;11.63;;
19903;SDS011;10114;50.970;4.962;2023-01-19T13:09:28;28.05;;;11.10;;
19903;SDS011;10114;50.970;4.962;2023-01-19T13:14:42;30.75;;;10.77;;
19903;SDS011;10114;50.970;4.962;2023-01-19T13:17:21;27.77;;;12.02;;
19903;SDS011;10114;50.970;4.962;2023-01-19T13:20:34;24.42;;;10.20;;
19903;SDS011;10114;50.970;4.962;2023-01-19T13:25:20;28.70;;;10.65;;
19903;SDS011;10114;50.970;4.962;2023-01-19T13:27:46;28.02;;;10.65;;
19903;SDS011;10114;50.970;4.962;2023-01-19T13:30:16;29.70;;;11.82;;
19903;SDS011;10114;50.970;4.962;2023-01-19T13:32:42;29.23;;;10.93;;
19903;SDS011;10114;50.970;4.962;2023-01-19T13:35:12;30.50;;;12.05;;
19903;SDS011;10114;50.970;4.962;2023-01-19T13:37:39;36.55;;;15.82;;
19903;SDS011;10114;50.970;4.962;2023-01-19T13:40:14;34.92;;;14.75;;
19903;SDS011;10114;50.970;4.962;2023-01-19T13:42:41;35.83;;;13.88;;
19903;SDS011;10114;50.970;4.962;2023-01-19T13:47:38;30.48;;;13.20;;
19903;SDS011;10114;50.970;4.962;2023-01-19T13:50:12;35.80;;;13.95;;
19903;SDS011;10114;50.970;4.962;2023-01-19T13:52:43;34.85;;;13.88;;
19903;SDS011;10114;50.970;4.962;2023-01-19T13:55:13;35.00;;;14.70;;
19903;SDS011;10114;50.970;4.962;2023-01-19T13:57:43;29.90;;;12.65;;
19903;SDS011;10114;50.970;4.962;2023-01-19T14:02:36;30.42;;;11.25;;
19903;SDS011;10114;50.970;4.962;2023-01-19T14:05:15;32.47;;;12.70;;
19903;SDS011;10114;50.970;4.962;2023-01-19T14:07:44;29.35;;;11.52;;
19903;SDS011;10114;50.970;4.962;2023-01-19T14:10:12;31.00;;;13.27;;
19903;SDS011;10114;50.970;4.962;2023-01-19T14:12:38;27.67;;;11.02;;
19903;SDS011;10114;50.970;4.962;2023-01-19T14:15:05;25.63;;;11.30;;
19903;SDS011;10114;50.970;4.962;2023-01-19T14:17:36;31.45;;;12.80;;
19903;SDS011;10114;50.970;4.962;2023-01-19T14:20:03;26.15;;;11.02;;
19903;SDS011;10114;50.970;4.962;2023-01-19T14:22:36;28.45;;;12.18;;
19903;SDS011;10114;50.970;4.962;2023-01-19T14:27:47;28.23;;;11.43;;
19903;SDS011;10114;50.970;4.962;2023-01-19T14:30:18;25.00;;;11.18;;
19903;SDS011;10114;50.970;4.962;2023-01-19T14:32:45;24.30;;;10.52;;
19903;SDS011;10114;50.970;4.962;2023-01-19T14:35:22;23.75;;;10.68;;
19903;SDS011;10114;50.970;4.962;2023-01-19T14:37:48;26.98;;;11.70;;
19903;SDS011;10114;50.970;4.962;2023-01-19T14:40:16;29.42;;;11.35;;
19903;SDS011;10114;50.970;4.962;2023-01-19T14:45:23;25.48;;;11.23;;
19903;SDS011;10114;50.970;4.962;2023-01-19T14:47:54;29.55;;;12.70;;
19903;SDS011;10114;50.970;4.962;2023-01-19T14:50:23;91.35;;;37.42;;
19903;SDS011;10114;50.970;4.962;2023-01-19T14:56:16;33.00;;;13.55;;
19903;SDS011;10114;50.970;4.962;2023-01-19T14:58:24;37.03;;;15.57;;
19903;SDS011;10114;50.970;4.962;2023-01-19T15:00:51;30.17;;;12.80;;
19903;SDS011;10114;50.970;4.962;2023-01-19T15:03:21;30.55;;;11.55;;
19903;SDS011;10114;50.970;4.962;2023-01-19T15:05:47;29.00;;;12.50;;
19903;SDS011;10114;50.970;4.962;2023-01-19T15:08:14;34.20;;;12.27;;
19903;SDS011;10114;50.970;4.962;2023-01-19T15:10:41;29.75;;;10.80;;
19903;SDS011;10114;50.970;4.962;2023-01-19T15:13:09;24.33;;;11.88;;
19903;SDS011;10114;50.970;4.962;2023-01-19T15:15:40;26.15;;;11.85;;
19903;SDS011;10114;50.970;4.962;2023-01-19T15:18:08;24.50;;;11.07;;
19903;SDS011;10114;50.970;4.962;2023-01-19T15:20:36;24.40;;;10.80;;
19903;SDS011;10114;50.970;4.962;2023-01-19T15:23:02;28.77;;;10.65;;
19903;SDS011;10114;50.970;4.962;2023-01-19T15:25:28;29.75;;;11.45;;
19903;SDS011;10114;50.970;4.962;2023-01-19T15:27:58;23.45;;;10.15;;
19903;SDS011;10114;50.970;4.962;2023-01-19T15:30:25;24.88;;;10.45;;
19903;SDS011;10114;50.970;4.962;2023-01-19T15:32:53;22.17;;;9.43;;
19903;SDS011;10114;50.970;4.962;2023-01-19T15:35:20;34.65;;;13.68;;
19903;SDS011;10114;50.970;4.962;2023-01-19T15:37:46;52.33;;;19.35;;
19903;SDS011;10114;50.970;4.962;2023-01-19T15:40:13;57.13;;;20.45;;
19903;SDS011;10114;50.970;4.962;2023-01-19T15:42:39;43.08;;;16.60;;
19903;SDS011;10114;50.970;4.962;2023-01-19T15:47:50;32.53;;;13.80;;
19903;SDS011;10114;50.970;4.962;2023-01-19T15:50:16;30.88;;;13.85;;
19903;SDS011;10114;50.970;4.962;2023-01-19T15:52:44;37.25;;;14.93;;